sensor_id;sensor_type;location;lat;lon;timestamp;P1;durP1;ratioP1;P2;durP2;ratioP2
5630;SDS011;2837;50.990;7.124;2023-06-22T05:00:50;149.27;;;12.30;;
5630;SDS011;2837;50.990;7.124;2023-06-22T05:03:16;147.37;;;11.13;;
5630;SDS011;2837;50.990;7.124;2023-06-22T05:05:43;150.27;;;11.77;;
5630;SDS011;2837;50.990;7.124;2023-06-22T05:08:09;147.87;;;11.20;;
5630;SDS011;2837;50.990;7.124;2023-06-22T05:10:35;153.17;;;12.10;;
5630;SDS011;2837;50.990;7.124;2023-06-22T05:13:01;148.93;;;11.73;;
5630;SDS011;2837;50.990;7.124;2023-06-22T05:15:27;149.43;;;11.90;;
5630;SDS011;2837;50.990;7.124;2023-06-22T05:17:55;148.37;;;12.10;;
5630;SDS011;2837;50.990;7.124;2023-06-22T05:20:21;148.67;;;11.77;;
5630;SDS011;2837;50.990;7.124;2023-06-22T05:22:47;148.07;;;11.23;;
5630;SDS011;2837;50.990;7.124;2023-06-22T05:25:13;148.83;;;12.00;;
5630;SDS011;2837;50.990;7.124;2023-06-22T05:27:38;148.07;;;11.80;;
5630;SDS011;2837;50.990;7.124;2023-06-22T05:30:08;148.03;;;11.90;;
5630;SDS011;2837;50.990;7.124;2023-06-22T05:32:34;147.77;;;11.73;;
5630;SDS011;2837;50.990;7.124;2023-06-22T05:35:01;148.57;;;11.90;;
5630;SDS011;2837;50.990;7.124;2023-06-22T05:37:28;147.27;;;11.37;;
5630;SDS011;2837;50.990;7.124;2023-06-22T05:39:54;147.70;;;11.40;;
5630;SDS011;2837;50.990;7.124;2023-06-22T05:42:20;149.07;;;12.30;;
5630;SDS011;2837;50.990;7.124;2023-06-22T05:44:46;150.40;;;12.23;;
5630;SDS011;2837;50.990;7.124;2023-06-22T05:47:12;148.20;;;11.33;;
5630;SDS011;2837;50.990;7.124;2023-06-22T05:49:38;148.03;;;11.00;;
5630;SDS011;2837;50.990;7.124;2023-06-22T05:52:04;146.77;;;11.00;;
5630;SDS011;2837;50.990;7.124;2023-06-22T05:54:30;147.17;;;10.30;;
5630;SDS011;2837;50.990;7.124;2023-06-22T05:56:56;146.60;;;10.77;;
5630;SDS011;2837;50.990;7.124;2023-06-22T05:59:22;147.37;;;10.97;;
5630;SDS011;2837;50.990;7.124;2023-06-22T06:01:48;148.37;;;10.43;;
5630;SDS011;2837;50.990;7.124;2023-06-22T06:04:18;146.07;;;9.57;;
5630;SDS011;2837;50.990;7.124;2023-06-22T06:06:44;147.40;;;10.77;;
5630;SDS011;2837;50.990;7.124;2023-06-22T06:09:10;147.70;;;10.67;;
5630;SDS011;2837;50.990;7.124;2023-06-22T06:11:36;149.47;;;10.87;;
5630;SDS011;2837;50.990;7.124;2023-06-22T06:14:02;147.97;;;10.87;;
5630;SDS011;2837;50.990;7.124;2023-06-22T06:16:28;148.70;;;9.50;;
5630;SDS011;2837;50.990;7.124;2023-06-22T06:18:53;147.30;;;9.70;;
5630;SDS011;2837;50.990;7.124;2023-06-22T06:21:20;148.60;;;10.97;;
5630;SDS011;2837;50.990;7.124;2023-06-22T06:23:46;146.80;;;10.80;;
5630;SDS011;2837;50.990;7.124;2023-06-22T06:26:12;146.60;;;10.73;;
5630;SDS011;2837;50.990;7.124;2023-06-22T06:28:37;146.60;;;10.63;;
5630;SDS011;2837;50.990;7.124;2023-06-22T06:31:03;146.87;;;11.23;;
5630;SDS011;2837;50.990;7.124;2023-06-22T06:33:33;147.73;;;11.00;;
5630;SDS011;2837;50.990;7.124;2023-06-22T06:35:59;147.17;;;10.97;;
5630;SDS011;2837;50.990;7.124;2023-06-22T06:38:28;147.67;;;10.97;;
5630;SDS011;2837;50.990;7.124;2023-06-22T06:40:56;147.37;;;11.20;;
5630;SDS011;2837;50.990;7.124;2023-06-22T06:43:23;146.50;;;10.70;;
5630;SDS011;2837;50.990;7.124;2023-06-22T06:45:49;146.87;;;11.00;;
5630;SDS011;2837;50.990;7.124;2023-06-22T06:48:15;146.73;;;11.00;;
5630;SDS011;2837;50.990;7.124;2023-06-22T06:50:41;144.67;;;9.67;;
5630;SDS011;2837;50.990;7.124;2023-06-22T06:53:08;145.47;;;9.80;;
5630;SDS011;2837;50.990;7.124;2023-06-22T06:55:34;144.70;;;9.53;;
5630;SDS011;2837;50.990;7.124;2023-06-22T06:58:00;145.33;;;9.03;;
5630;SDS011;2837;50.990;7.124;2023-06-22T07:00:27;144.07;;;8.93;;
5630;SDS011;2837;50.990;7.124;2023-06-22T07:02:53;145.87;;;9.90;;
5630;SDS011;2837;50.990;7.124;2023-06-22T07:05:19;145.33;;;10.40;;
5630;SDS011;2837;50.990;7.124;2023-06-22T07:07:44;146.90;;;11.10;;
5630;SDS011;2837;50.990;7.124;2023-06-22T07:10:11;147.27;;;11.20;;
5630;SDS011;2837;50.990;7.124;2023-06-22T07:12:36;145.73;;;10.97;;
5630;SDS011;2837;50.990;7.124;2023-06-22T07:15:09;147.53;;;10.70;;
5630;SDS011;2837;50.990;7.124;2023-06-22T07:17:36;146.07;;;11.20;;
5630;SDS011;2837;50.990;7.124;2023-06-22T07:20:02;146.17;;;10.80;;
5630;SDS011;2837;50.990;7.124;2023-06-22T07:22:35;146.60;;;10.37;;
5630;SDS011;2837;50.990;7.124;2023-06-22T07:25:01;145.70;;;10.67;;
5630;SDS011;2837;50.990;7.124;2023-06-22T07:27:30;147.20;;;11.60;;
5630;SDS011;2837;50.990;7.124;2023-06-22T07:30:00;147.30;;;10.53;;
5630;SDS011;2837;50.990;7.124;2023-06-22T07:32:26;145.27;;;10.43;;
5630;SDS011;2837;50.990;7.124;2023-06-22T07:34:53;146.60;;;9.90;;
5630;SDS011;2837;50.990;7.124;2023-06-22T07:37:19;148.10;;;11.70;;
5630;SDS011;2837;50.990;7.124;2023-06-22T07:39:45;146.30;;;11.17;;
5630;SDS011;2837;50.990;7.124;2023-06-22T07:42:11;146.77;;;10.20;;
5630;SDS011;2837;50.990;7.124;2023-06-22T07:44:37;148.50;;;11.13;;
5630;SDS011;2837;50.990;7.124;2023-06-22T07:47:03;147.00;;;11.13;;
5630;SDS011;2837;50.990;7.124;2023-06-22T07:49:29;146.77;;;11.50;;
5630;SDS011;2837;50.990;7.124;2023-06-22T07:51:54;147.50;;;11.30;;
5630;SDS011;2837;50.990;7.124;2023-06-22T07:54:20;145.60;;;9.80;;
5630;SDS011;2837;50.990;7.124;2023-06-22T07:56:46;147.67;;;12.07;;
5630;SDS011;2837;50.990;7.124;2023-06-22T07:59:12;146.90;;;10.30;;
5630;SDS011;2837;50.990;7.124;2023-06-22T08:01:38;146.57;;;10.93;;
5630;SDS011;2837;50.990;7.124;2023-06-22T08:04:04;145.00;;;10.07;;
5630;SDS011;2837;50.990;7.124;2023-06-22T08:06:30;147.67;;;11.10;;
5630;SDS011;2837;50.990;7.124;2023-06-22T08:08:56;145.40;;;10.80;;
5630;SDS011;2837;50.990;7.124;2023-06-22T08:11:23;145.40;;;10.80;;
5630;SDS011;2837;50.990;7.124;2023-06-22T08:13:50;144.83;;;9.63;;
5630;SDS011;2837;50.990;7.124;2023-06-22T08:16:16;145.20;;;10.70;;
5630;SDS011;2837;50.990;7.124;2023-06-22T08:18:42;146.10;;;10.83;;
5630;SDS011;2837;50.990;7.124;2023-06-22T08:21:08;144.20;;;10.20;;
5630;SDS011;2837;50.990;7.124;2023-06-22T08:23:33;147.07;;;11.03;;
5630;SDS011;2837;50.990;7.124;2023-06-22T08:26:00;145.57;;;10.50;;
5630;SDS011;2837;50.990;7.124;2023-06-22T08:28:26;146.40;;;10.67;;
5630;SDS011;2837;50.990;7.124;2023-06-22T08:30:52;144.73;;;10.07;;
5630;SDS011;2837;50.990;7.124;2023-06-22T08:33:18;145.90;;;10.93;;
5630;SDS011;2837;50.990;7.124;2023-06-22T08:35:43;147.37;;;10.90;;
5630;SDS011;2837;50.990;7.124;2023-06-22T08:38:09;145.97;;;11.03;;
5630;SDS011;2837;50.990;7.124;2023-06-22T08:40:40;145.63;;;11.17;;
5630;SDS011;2837;50.990;7.124;2023-06-22T08:43:06;146.57;;;11.20;;
5630;SDS011;2837;50.990;7.124;2023-06-22T08:45:32;144.67;;;9.90;;
5630;SDS011;2837;50.990;7.124;2023-06-22T08:47:57;146.00;;;10.47;;
5630;SDS011;2837;50.990;7.124;2023-06-22T08:50:23;146.93;;;11.10;;
5630;SDS011;2837;50.990;7.124;2023-06-22T08:52:49;147.00;;;11.07;;
5630;SDS011;2837;50.990;7.124;2023-06-22T08:55:15;144.87;;;10.37;;
5630;SDS011;2837;50.990;7.124;2023-06-22T08:57:41;146.40;;;11.20;;
5630;SDS011;2837;50.990;7.124;2023-06-22T09:00:08;146.77;;;11.50;;
5630;SDS011;2837;50.990;7.124;2023-06-22T09:02:41;146.50;;;11.03;;
5630;SDS011;2837;50.990;7.124;2023-06-22T09:05:06;147.00;;;11.10;;
5630;SDS011;2837;50.990;7.124;2023-06-22T09:07:32;146.20;;;10.67;;
5630;SDS011;2837;50.990;7.124;2023-06-22T09:09:59;146.17;;;10.63;;
5630;SDS011;2837;50.990;7.124;2023-06-22T09:12:25;146.77;;;10.50;;
5630;SDS011;2837;50.990;7.124;2023-06-22T09:14:52;145.67;;;9.83;;
5630;SDS011;2837;50.990;7.124;2023-06-22T09:17:18;145.27;;;10.67;;
5630;SDS011;2837;50.990;7.124;2023-06-22T09:19:44;145.97;;;10.90;;
5630;SDS011;2837;50.990;7.124;2023-06-22T09:22:10;145.93;;;10.73;;
5630;SDS011;2837;50.990;7.124;2023-06-22T09:24:36;146.80;;;9.70;;
5630;SDS011;2837;50.990;7.124;2023-06-22T09:27:02;145.07;;;10.67;;
5630;SDS011;2837;50.990;7.124;2023-06-22T09:29:28;147.37;;;10.83;;
5630;SDS011;2837;50.990;7.124;2023-06-22T09:31:54;146.47;;;9.80;;
5630;SDS011;2837;50.990;7.124;2023-06-22T09:34:20;144.97;;;9.97;;
5630;SDS011;2837;50.990;7.124;2023-06-22T09:36:47;146.37;;;10.43;;
5630;SDS011;2837;50.990;7.124;2023-06-22T09:39:12;147.20;;;10.80;;
5630;SDS011;2837;50.990;7.124;2023-06-22T09:41:38;144.30;;;10.40;;
5630;SDS011;2837;50.990;7.124;2023-06-22T09:44:04;147.67;;;10.90;;
5630;SDS011;2837;50.990;7.124;2023-06-22T09:46:30;147.20;;;9.80;;
5630;SDS011;2837;50.990;7.124;2023-06-22T09:48:56;146.77;;;10.83;;
5630;SDS011;2837;50.990;7.124;2023-06-22T09:51:22;145.80;;;10.30;;
5630;SDS011;2837;50.990;7.124;2023-06-22T09:53:49;145.60;;;10.43;;
5630;SDS011;2837;50.990;7.124;2023-06-22T09:56:15;146.27;;;10.93;;
5630;SDS011;2837;50.990;7.124;2023-06-22T09:58:44;145.37;;;10.57;;
5630;SDS011;2837;50.990;7.124;2023-06-22T10:01:11;146.90;;;10.60;;
5630;SDS011;2837;50.990;7.124;2023-06-22T10:03:39;145.50;;;10.53;;
5630;SDS011;2837;50.990;7.124;2023-06-22T10:06:06;147.00;;;10.90;;
5630;SDS011;2837;50.990;7.124;2023-06-22T10:08:32;144.57;;;9.90;;
5630;SDS011;2837;50.990;7.124;2023-06-22T10:10:58;144.10;;;10.00;;
5630;SDS011;2837;50.990;7.124;2023-06-22T10:13:24;145.07;;;10.47;;
5630;SDS011;2837;50.990;7.124;2023-06-22T10:15:50;146.90;;;10.87;;
5630;SDS011;2837;50.990;7.124;2023-06-22T10:18:20;146.43;;;10.10;;
5630;SDS011;2837;50.990;7.124;2023-06-22T10:20:47;144.30;;;10.13;;
5630;SDS011;2837;50.990;7.124;2023-06-22T10:23:16;144.63;;;10.90;;
5630;SDS011;2837;50.990;7.124;2023-06-22T10:25:42;145.77;;;10.20;;
5630;SDS011;2837;50.990;7.124;2023-06-22T10:28:07;146.00;;;10.80;;
5630;SDS011;2837;50.990;7.124;2023-06-22T10:30:33;143.87;;;9.87;;
5630;SDS011;2837;50.990;7.124;2023-06-22T10:32:59;143.37;;;10.63;;
5630;SDS011;2837;50.990;7.124;2023-06-22T10:35:25;146.17;;;10.37;;
5630;SDS011;2837;50.990;7.124;2023-06-22T10:37:50;146.90;;;10.63;;
5630;SDS011;2837;50.990;7.124;2023-06-22T10:40:16;147.47;;;10.80;;
5630;SDS011;2837;50.990;7.124;2023-06-22T10:42:43;145.67;;;11.20;;
5630;SDS011;2837;50.990;7.124;2023-06-22T10:45:09;144.30;;;9.63;;
5630;SDS011;2837;50.990;7.124;2023-06-22T10:47:35;145.63;;;10.20;;
5630;SDS011;2837;50.990;7.124;2023-06-22T10:50:01;147.07;;;11.00;;
5630;SDS011;2837;50.990;7.124;2023-06-22T10:52:27;145.07;;;10.43;;
5630;SDS011;2837;50.990;7.124;2023-06-22T10:54:53;144.97;;;10.17;;
5630;SDS011;2837;50.990;7.124;2023-06-22T10:57:19;147.70;;;10.40;;
5630;SDS011;2837;50.990;7.124;2023-06-22T10:59:45;147.47;;;10.60;;
5630;SDS011;2837;50.990;7.124;2023-06-22T11:02:11;146.33;;;10.47;;
5630;SDS011;2837;50.990;7.124;2023-06-22T11:04:37;146.27;;;10.43;;
5630;SDS011;2837;50.990;7.124;2023-06-22T11:07:03;145.37;;;10.87;;
5630;SDS011;2837;50.990;7.124;2023-06-22T11:09:28;145.77;;;10.27;;
5630;SDS011;2837;50.990;7.124;2023-06-22T11:11:55;148.23;;;11.80;;
5630;SDS011;2837;50.990;7.124;2023-06-22T11:14:21;147.10;;;11.03;;
5630;SDS011;2837;50.990;7.124;2023-06-22T11:16:47;146.97;;;10.17;;
5630;SDS011;2837;50.990;7.124;2023-06-22T11:19:13;144.17;;;9.30;;
5630;SDS011;2837;50.990;7.124;2023-06-22T11:21:38;146.40;;;11.40;;
5630;SDS011;2837;50.990;7.124;2023-06-22T11:24:04;149.67;;;10.10;;
5630;SDS011;2837;50.990;7.124;2023-06-22T11:26:30;148.83;;;12.57;;
5630;SDS011;2837;50.990;7.124;2023-06-22T11:28:56;148.07;;;11.93;;
5630;SDS011;2837;50.990;7.124;2023-06-22T11:31:22;146.07;;;10.60;;
5630;SDS011;2837;50.990;7.124;2023-06-22T11:33:48;146.47;;;10.73;;
5630;SDS011;2837;50.990;7.124;2023-06-22T11:36:15;152.27;;;12.63;;
5630;SDS011;2837;50.990;7.124;2023-06-22T11:38:41;150.80;;;13.17;;
5630;SDS011;2837;50.990;7.124;2023-06-22T11:41:07;153.17;;;13.73;;
5630;SDS011;2837;50.990;7.124;2023-06-22T11:43:34;151.73;;;13.77;;
5630;SDS011;2837;50.990;7.124;2023-06-22T11:46:01;150.90;;;12.50;;
5630;SDS011;2837;50.990;7.124;2023-06-22T11:48:28;147.80;;;11.50;;
5630;SDS011;2837;50.990;7.124;2023-06-22T11:50:54;149.80;;;13.10;;
5630;SDS011;2837;50.990;7.124;2023-06-22T11:53:20;150.97;;;12.60;;
5630;SDS011;2837;50.990;7.124;2023-06-22T11:55:47;150.87;;;13.87;;
5630;SDS011;2837;50.990;7.124;2023-06-22T11:58:14;150.20;;;12.10;;
5630;SDS011;2837;50.990;7.124;2023-06-22T12:00:40;151.00;;;13.77;;
5630;SDS011;2837;50.990;7.124;2023-06-22T12:03:06;149.37;;;13.07;;
5630;SDS011;2837;50.990;7.124;2023-06-22T12:05:32;150.13;;;12.90;;
5630;SDS011;2837;50.990;7.124;2023-06-22T12:07:59;151.27;;;13.97;;
5630;SDS011;2837;50.990;7.124;2023-06-22T12:10:25;150.87;;;12.70;;
5630;SDS011;2837;50.990;7.124;2023-06-22T12:12:53;151.97;;;14.00;;
5630;SDS011;2837;50.990;7.124;2023-06-22T12:15:19;151.03;;;12.57;;
5630;SDS011;2837;50.990;7.124;2023-06-22T12:17:45;150.80;;;14.23;;
5630;SDS011;2837;50.990;7.124;2023-06-22T12:20:13;150.77;;;12.77;;
5630;SDS011;2837;50.990;7.124;2023-06-22T12:22:40;150.00;;;13.47;;
5630;SDS011;2837;50.990;7.124;2023-06-22T12:25:06;149.57;;;12.87;;
5630;SDS011;2837;50.990;7.124;2023-06-22T12:27:36;149.47;;;11.90;;
5630;SDS011;2837;50.990;7.124;2023-06-22T12:30:02;158.17;;;14.30;;
5630;SDS011;2837;50.990;7.124;2023-06-22T12:32:28;149.97;;;13.27;;
5630;SDS011;2837;50.990;7.124;2023-06-22T12:34:55;150.37;;;13.13;;
5630;SDS011;2837;50.990;7.124;2023-06-22T12:37:21;151.47;;;13.43;;
5630;SDS011;2837;50.990;7.124;2023-06-22T12:39:47;152.60;;;14.73;;
5630;SDS011;2837;50.990;7.124;2023-06-22T12:42:13;154.47;;;13.70;;
5630;SDS011;2837;50.990;7.124;2023-06-22T12:44:39;154.07;;;13.70;;
5630;SDS011;2837;50.990;7.124;2023-06-22T12:47:05;154.40;;;14.87;;
5630;SDS011;2837;50.990;7.124;2023-06-22T12:49:31;153.90;;;14.73;;
5630;SDS011;2837;50.990;7.124;2023-06-22T12:51:57;148.90;;;12.97;;
5630;SDS011;2837;50.990;7.124;2023-06-22T12:54:22;150.17;;;13.40;;
5630;SDS011;2837;50.990;7.124;2023-06-22T12:56:50;152.67;;;14.70;;
5630;SDS011;2837;50.990;7.124;2023-06-22T12:59:15;149.77;;;13.53;;
5630;SDS011;2837;50.990;7.124;2023-06-22T13:01:42;151.97;;;14.20;;
5630;SDS011;2837;50.990;7.124;2023-06-22T13:04:12;150.40;;;13.27;;
5630;SDS011;2837;50.990;7.124;2023-06-22T13:06:42;149.77;;;13.40;;
5630;SDS011;2837;50.990;7.124;2023-06-22T13:09:12;149.13;;;12.40;;
5630;SDS011;2837;50.990;7.124;2023-06-22T13:11:38;147.77;;;11.00;;
5630;SDS011;2837;50.990;7.124;2023-06-22T13:14:04;148.37;;;11.23;;
5630;SDS011;2837;50.990;7.124;2023-06-22T13:16:30;148.40;;;12.50;;
5630;SDS011;2837;50.990;7.124;2023-06-22T13:18:56;150.87;;;12.53;;
5630;SDS011;2837;50.990;7.124;2023-06-22T13:21:22;148.67;;;12.17;;
5630;SDS011;2837;50.990;7.124;2023-06-22T13:23:48;151.07;;;11.80;;
5630;SDS011;2837;50.990;7.124;2023-06-22T13:26:14;148.40;;;11.83;;
5630;SDS011;2837;50.990;7.124;2023-06-22T13:28:40;147.17;;;10.90;;
5630;SDS011;2837;50.990;7.124;2023-06-22T13:31:05;146.67;;;10.43;;
5630;SDS011;2837;50.990;7.124;2023-06-22T13:33:31;146.03;;;11.00;;
5630;SDS011;2837;50.990;7.124;2023-06-22T13:35:57;146.80;;;11.17;;
5630;SDS011;2837;50.990;7.124;2023-06-22T13:38:23;145.80;;;10.70;;
5630;SDS011;2837;50.990;7.124;2023-06-22T13:40:49;145.07;;;9.80;;
5630;SDS011;2837;50.990;7.124;2023-06-22T13:43:15;146.70;;;9.70;;
5630;SDS011;2837;50.990;7.124;2023-06-22T13:45:41;145.77;;;9.83;;
5630;SDS011;2837;50.990;7.124;2023-06-22T13:48:07;144.87;;;9.60;;
5630;SDS011;2837;50.990;7.124;2023-06-22T13:50:33;144.17;;;9.27;;
5630;SDS011;2837;50.990;7.124;2023-06-22T13:52:59;144.17;;;8.80;;
5630;SDS011;2837;50.990;7.124;2023-06-22T13:55:25;145.30;;;10.03;;
5630;SDS011;2837;50.990;7.124;2023-06-22T13:57:51;144.07;;;8.90;;
5630;SDS011;2837;50.990;7.124;2023-06-22T14:00:17;145.00;;;10.13;;
5630;SDS011;2837;50.990;7.124;2023-06-22T14:02:43;143.87;;;9.27;;
5630;SDS011;2837;50.990;7.124;2023-06-22T14:05:09;145.90;;;9.90;;
5630;SDS011;2837;50.990;7.124;2023-06-22T14:07:36;144.87;;;9.10;;
5630;SDS011;2837;50.990;7.124;2023-06-22T14:10:02;145.47;;;9.70;;
5630;SDS011;2837;50.990;7.124;2023-06-22T14:12:28;144.27;;;9.73;;
5630;SDS011;2837;50.990;7.124;2023-06-22T14:14:54;144.37;;;9.03;;
5630;SDS011;2837;50.990;7.124;2023-06-22T14:17:21;144.43;;;9.40;;
5630;SDS011;2837;50.990;7.124;2023-06-22T14:19:50;144.00;;;10.13;;
5630;SDS011;2837;50.990;7.124;2023-06-22T14:22:19;144.80;;;10.00;;
5630;SDS011;2837;50.990;7.124;2023-06-22T14:24:45;144.27;;;9.83;;
5630;SDS011;2837;50.990;7.124;2023-06-22T14:27:11;145.60;;;10.23;;
5630;SDS011;2837;50.990;7.124;2023-06-22T14:29:37;144.17;;;9.27;;
5630;SDS011;2837;50.990;7.124;2023-06-22T14:32:03;143.07;;;9.10;;
5630;SDS011;2837;50.990;7.124;2023-06-22T14:34:31;143.63;;;8.70;;
5630;SDS011;2837;50.990;7.124;2023-06-22T14:36:57;152.70;;;10.17;;
5630;SDS011;2837;50.990;7.124;2023-06-22T14:39:23;145.50;;;10.20;;
5630;SDS011;2837;50.990;7.124;2023-06-22T14:41:49;144.57;;;9.27;;
5630;SDS011;2837;50.990;7.124;2023-06-22T14:44:15;144.33;;;9.63;;
5630;SDS011;2837;50.990;7.124;2023-06-22T14:46:41;147.53;;;9.90;;
5630;SDS011;2837;50.990;7.124;2023-06-22T14:49:07;143.47;;;8.63;;
5630;SDS011;2837;50.990;7.124;2023-06-22T14:51:32;143.97;;;9.00;;
5630;SDS011;2837;50.990;7.124;2023-06-22T14:53:58;143.17;;;9.67;;
5630;SDS011;2837;50.990;7.124;2023-06-22T14:56:24;145.07;;;9.67;;
5630;SDS011;2837;50.990;7.124;2023-06-22T14:58:50;145.00;;;9.60;;
5630;SDS011;2837;50.990;7.124;2023-06-22T15:01:16;146.00;;;10.10;;
5630;SDS011;2837;50.990;7.124;2023-06-22T15:03:43;146.30;;;10.97;;
5630;SDS011;2837;50.990;7.124;2023-06-22T15:06:09;151.30;;;12.07;;
5630;SDS011;2837;50.990;7.124;2023-06-22T15:08:37;149.73;;;10.60;;
5630;SDS011;2837;50.990;7.124;2023-06-22T15:11:03;145.13;;;9.70;;
5630;SDS011;2837;50.990;7.124;2023-06-22T15:13:32;145.40;;;9.43;;
5630;SDS011;2837;50.990;7.124;2023-06-22T15:15:59;145.47;;;9.67;;
5630;SDS011;2837;50.990;7.124;2023-06-22T15:18:25;146.30;;;9.63;;
5630;SDS011;2837;50.990;7.124;2023-06-22T15:20:52;149.57;;;10.67;;
5630;SDS011;2837;50.990;7.124;2023-06-22T15:23:18;149.47;;;11.60;;
5630;SDS011;2837;50.990;7.124;2023-06-22T15:25:43;147.87;;;11.20;;
5630;SDS011;2837;50.990;7.124;2023-06-22T15:28:10;148.57;;;11.17;;
5630;SDS011;2837;50.990;7.124;2023-06-22T15:30:36;148.37;;;11.27;;
5630;SDS011;2837;50.990;7.124;2023-06-22T15:33:02;159.50;;;12.87;;
5630;SDS011;2837;50.990;7.124;2023-06-22T15:35:28;153.63;;;12.67;;
5630;SDS011;2837;50.990;7.124;2023-06-22T15:37:54;149.70;;;12.33;;
5630;SDS011;2837;50.990;7.124;2023-06-22T15:40:19;152.83;;;13.10;;
5630;SDS011;2837;50.990;7.124;2023-06-22T15:42:45;150.87;;;13.00;;
5630;SDS011;2837;50.990;7.124;2023-06-22T15:45:12;149.90;;;12.70;;
5630;SDS011;2837;50.990;7.124;2023-06-22T15:47:38;149.17;;;12.47;;
5630;SDS011;2837;50.990;7.124;2023-06-22T15:50:04;150.10;;;11.63;;
5630;SDS011;2837;50.990;7.124;2023-06-22T15:52:30;149.67;;;12.97;;
5630;SDS011;2837;50.990;7.124;2023-06-22T15:54:56;147.80;;;11.17;;
5630;SDS011;2837;50.990;7.124;2023-06-22T15:57:25;149.70;;;11.40;;
5630;SDS011;2837;50.990;7.124;2023-06-22T15:59:52;148.50;;;11.50;;
5630;SDS011;2837;50.990;7.124;2023-06-22T16:02:18;150.07;;;12.50;;
5630;SDS011;2837;50.990;7.124;2023-06-22T16:04:44;149.60;;;11.80;;
5630;SDS011;2837;50.990;7.124;2023-06-22T16:07:10;149.33;;;11.70;;
5630;SDS011;2837;50.990;7.124;2023-06-22T16:09:37;149.00;;;11.87;;
5630;SDS011;2837;50.990;7.124;2023-06-22T16:12:03;146.83;;;10.50;;
5630;SDS011;2837;50.990;7.124;2023-06-22T16:14:33;151.03;;;11.10;;
5630;SDS011;2837;50.990;7.124;2023-06-22T16:16:59;150.97;;;11.37;;
5630;SDS011;2837;50.990;7.124;2023-06-22T16:19:25;149.03;;;11.60;;
5630;SDS011;2837;50.990;7.124;2023-06-22T16:21:51;150.17;;;12.83;;
5630;SDS011;2837;50.990;7.124;2023-06-22T16:24:17;149.07;;;11.80;;
5630;SDS011;2837;50.990;7.124;2023-06-22T16:26:43;150.00;;;12.17;;
5630;SDS011;2837;50.990;7.124;2023-06-22T16:29:09;151.77;;;13.10;;
5630;SDS011;2837;50.990;7.124;2023-06-22T16:31:35;150.33;;;12.33;;
5630;SDS011;2837;50.990;7.124;2023-06-22T16:34:04;151.07;;;12.63;;
5630;SDS011;2837;50.990;7.124;2023-06-22T16:36:30;151.27;;;12.77;;
5630;SDS011;2837;50.990;7.124;2023-06-22T16:38:56;149.63;;;12.43;;
5630;SDS011;2837;50.990;7.124;2023-06-22T16:41:22;151.47;;;13.07;;
5630;SDS011;2837;50.990;7.124;2023-06-22T16:43:47;152.60;;;12.73;;
5630;SDS011;2837;50.990;7.124;2023-06-22T16:46:13;150.47;;;12.40;;
5630;SDS011;2837;50.990;7.124;2023-06-22T16:48:39;153.90;;;12.63;;
5630;SDS011;2837;50.990;7.124;2023-06-22T16:51:06;152.30;;;12.73;;
5630;SDS011;2837;50.990;7.124;2023-06-22T16:53:31;149.87;;;11.50;;
5630;SDS011;2837;50.990;7.124;2023-06-22T16:55:58;151.10;;;12.10;;
5630;SDS011;2837;50.990;7.124;2023-06-22T16:58:24;153.10;;;12.10;;
5630;SDS011;2837;50.990;7.124;2023-06-22T17:00:50;151.77;;;10.93;;
5630;SDS011;2837;50.990;7.124;2023-06-22T17:03:20;147.57;;;9.80;;
5630;SDS011;2837;50.990;7.124;2023-06-22T17:05:56;145.30;;;8.87;;
5630;SDS011;2837;50.990;7.124;2023-06-22T17:08:22;147.87;;;10.33;;
5630;SDS011;2837;50.990;7.124;2023-06-22T17:10:53;150.80;;;9.43;;
5630;SDS011;2837;50.990;7.124;2023-06-22T17:13:19;147.07;;;9.80;;
5630;SDS011;2837;50.990;7.124;2023-06-22T17:15:45;146.47;;;9.40;;
5630;SDS011;2837;50.990;7.124;2023-06-22T17:18:14;148.50;;;9.90;;
5630;SDS011;2837;50.990;7.124;2023-06-22T17:20:40;147.10;;;8.97;;
5630;SDS011;2837;50.990;7.124;2023-06-22T17:23:06;147.80;;;9.80;;
5630;SDS011;2837;50.990;7.124;2023-06-22T17:25:32;148.60;;;10.20;;
5630;SDS011;2837;50.990;7.124;2023-06-22T17:27:59;151.17;;;10.40;;
5630;SDS011;2837;50.990;7.124;2023-06-22T17:30:26;146.37;;;9.60;;
5630;SDS011;2837;50.990;7.124;2023-06-22T17:32:52;152.97;;;9.73;;
5630;SDS011;2837;50.990;7.124;2023-06-22T17:35:18;147.50;;;9.63;;
5630;SDS011;2837;50.990;7.124;2023-06-22T17:37:50;146.87;;;9.40;;
5630;SDS011;2837;50.990;7.124;2023-06-22T17:40:21;146.03;;;8.83;;
5630;SDS011;2837;50.990;7.124;2023-06-22T17:42:48;146.63;;;8.80;;
5630;SDS011;2837;50.990;7.124;2023-06-22T17:45:21;146.90;;;9.43;;
5630;SDS011;2837;50.990;7.124;2023-06-22T17:47:48;146.67;;;9.50;;
5630;SDS011;2837;50.990;7.124;2023-06-22T17:50:15;146.47;;;10.07;;
5630;SDS011;2837;50.990;7.124;2023-06-22T17:52:41;146.60;;;9.33;;
5630;SDS011;2837;50.990;7.124;2023-06-22T17:55:19;148.40;;;10.20;;
5630;SDS011;2837;50.990;7.124;2023-06-22T17:57:54;147.10;;;9.30;;
5630;SDS011;2837;50.990;7.124;2023-06-22T18:00:21;145.37;;;8.43;;
5630;SDS011;2837;50.990;7.124;2023-06-22T18:02:48;145.57;;;8.93;;
5630;SDS011;2837;50.990;7.124;2023-06-22T18:05:14;147.07;;;9.37;;
5630;SDS011;2837;50.990;7.124;2023-06-22T18:07:41;145.60;;;9.37;;
5630;SDS011;2837;50.990;7.124;2023-06-22T18:10:07;148.37;;;9.27;;
5630;SDS011;2837;50.990;7.124;2023-06-22T18:12:34;147.90;;;9.60;;
5630;SDS011;2837;50.990;7.124;2023-06-22T18:15:02;146.40;;;9.23;;
5630;SDS011;2837;50.990;7.124;2023-06-22T18:17:27;147.50;;;9.90;;
5630;SDS011;2837;50.990;7.124;2023-06-22T18:19:54;147.87;;;9.87;;
5630;SDS011;2837;50.990;7.124;2023-06-22T18:22:21;145.37;;;8.20;;
5630;SDS011;2837;50.990;7.124;2023-06-22T18:24:50;144.87;;;7.90;;
5630;SDS011;2837;50.990;7.124;2023-06-22T18:27:17;145.97;;;8.87;;
5630;SDS011;2837;50.990;7.124;2023-06-22T18:29:43;145.70;;;8.90;;
5630;SDS011;2837;50.990;7.124;2023-06-22T18:32:10;145.87;;;9.17;;
5630;SDS011;2837;50.990;7.124;2023-06-22T18:34:36;146.57;;;8.37;;
5630;SDS011;2837;50.990;7.124;2023-06-22T18:37:03;146.17;;;8.83;;
5630;SDS011;2837;50.990;7.124;2023-06-22T18:39:31;146.17;;;8.80;;
5630;SDS011;2837;50.990;7.124;2023-06-22T18:41:58;145.43;;;8.73;;
5630;SDS011;2837;50.990;7.124;2023-06-22T18:44:27;144.63;;;8.30;;
5630;SDS011;2837;50.990;7.124;2023-06-22T18:47:00;146.47;;;9.10;;
5630;SDS011;2837;50.990;7.124;2023-06-22T18:49:31;144.13;;;7.80;;
5630;SDS011;2837;50.990;7.124;2023-06-22T18:54:39;145.53;;;8.70;;
5630;SDS011;2837;50.990;7.124;2023-06-22T18:57:15;148.70;;;11.10;;
5630;SDS011;2837;50.990;7.124;2023-06-22T19:02:12;151.87;;;13.47;;
5630;SDS011;2837;50.990;7.124;2023-06-22T19:05:08;150.40;;;13.00;;
5630;SDS011;2837;50.990;7.124;2023-06-22T19:12:47;155.03;;;15.53;;
5630;SDS011;2837;50.990;7.124;2023-06-22T19:15:15;151.97;;;15.30;;
5630;SDS011;2837;50.990;7.124;2023-06-22T19:17:41;151.10;;;13.70;;
5630;SDS011;2837;50.990;7.124;2023-06-22T19:20:08;150.80;;;12.97;;
5630;SDS011;2837;50.990;7.124;2023-06-22T19:22:46;151.37;;;14.70;;
5630;SDS011;2837;50.990;7.124;2023-06-22T19:25:18;151.77;;;13.63;;
5630;SDS011;2837;50.990;7.124;2023-06-22T19:27:45;154.00;;;13.40;;
5630;SDS011;2837;50.990;7.124;2023-06-22T19:30:12;152.17;;;14.00;;
5630;SDS011;2837;50.990;7.124;2023-06-22T19:32:41;151.17;;;13.40;;
5630;SDS011;2837;50.990;7.124;2023-06-22T19:35:07;155.20;;;15.13;;
5630;SDS011;2837;50.990;7.124;2023-06-22T19:37:34;152.07;;;13.50;;
5630;SDS011;2837;50.990;7.124;2023-06-22T19:40:00;153.87;;;14.00;;
5630;SDS011;2837;50.990;7.124;2023-06-22T19:42:26;155.33;;;15.93;;
5630;SDS011;2837;50.990;7.124;2023-06-22T19:44:52;159.73;;;15.60;;